sensor_id;sensor_type;location;lat;lon;timestamp;P1;durP1;ratioP1;P2;durP2;ratioP2
30723;SDS011;17473;52.286;20.930;2022-10-26T00:03:39;17.17;;;10.82;;
30723;SDS011;17473;52.286;20.930;2022-10-26T00:06:13;17.98;;;11.20;;
30723;SDS011;17473;52.286;20.930;2022-10-26T00:08:42;19.70;;;11.77;;
30723;SDS011;17473;52.286;20.930;2022-10-26T00:11:11;18.85;;;11.43;;
30723;SDS011;17473;52.286;20.930;2022-10-26T00:13:38;20.20;;;11.45;;
30723;SDS011;17473;52.286;20.930;2022-10-26T00:16:07;16.88;;;12.27;;
30723;SDS011;17473;52.286;20.930;2022-10-26T00:18:40;21.25;;;12.10;;
30723;SDS011;17473;52.286;20.930;2022-10-26T00:21:08;15.82;;;11.80;;
30723;SDS011;17473;52.286;20.930;2022-10-26T00:23:36;21.85;;;13.50;;
30723;SDS011;17473;52.286;20.930;2022-10-26T00:26:04;19.80;;;12.23;;
30723;SDS011;17473;52.286;20.930;2022-10-26T00:28:31;17.05;;;12.25;;
30723;SDS011;17473;52.286;20.930;2022-10-26T00:31:00;19.15;;;12.98;;
30723;SDS011;17473;52.286;20.930;2022-10-26T00:33:29;18.15;;;12.57;;
30723;SDS011;17473;52.286;20.930;2022-10-26T00:35:57;19.33;;;13.23;;
30723;SDS011;17473;52.286;20.930;2022-10-26T00:38:24;18.83;;;13.90;;
30723;SDS011;17473;52.286;20.930;2022-10-26T00:40:51;19.45;;;12.30;;
30723;SDS011;17473;52.286;20.930;2022-10-26T00:45:48;21.08;;;11.68;;
30723;SDS011;17473;52.286;20.930;2022-10-26T00:48:33;17.65;;;11.70;;
30723;SDS011;17473;52.286;20.930;2022-10-26T00:51:11;19.55;;;12.75;;
30723;SDS011;17473;52.286;20.930;2022-10-26T00:54:03;21.35;;;12.27;;
30723;SDS011;17473;52.286;20.930;2022-10-26T00:56:33;23.10;;;13.75;;
30723;SDS011;17473;52.286;20.930;2022-10-26T00:59:02;25.05;;;13.30;;
30723;SDS011;17473;52.286;20.930;2022-10-26T01:01:33;19.80;;;13.32;;
30723;SDS011;17473;52.286;20.930;2022-10-26T01:04:03;19.35;;;13.25;;
30723;SDS011;17473;52.286;20.930;2022-10-26T01:06:30;22.13;;;13.25;;
30723;SDS011;17473;52.286;20.930;2022-10-26T01:09:00;20.17;;;13.43;;
30723;SDS011;17473;52.286;20.930;2022-10-26T01:11:28;17.55;;;12.95;;
30723;SDS011;17473;52.286;20.930;2022-10-26T01:13:55;19.95;;;14.20;;
30723;SDS011;17473;52.286;20.930;2022-10-26T01:28:45;21.55;;;13.15;;
30723;SDS011;17473;52.286;20.930;2022-10-26T01:31:33;19.38;;;13.38;;
30723;SDS011;17473;52.286;20.930;2022-10-26T01:34:14;23.08;;;13.18;;
30723;SDS011;17473;52.286;20.930;2022-10-26T01:36:54;22.80;;;13.48;;
30723;SDS011;17473;52.286;20.930;2022-10-26T01:39:35;20.95;;;13.75;;
30723;SDS011;17473;52.286;20.930;2022-10-26T01:42:09;25.65;;;13.82;;
30723;SDS011;17473;52.286;20.930;2022-10-26T01:44:40;20.83;;;13.82;;
30723;SDS011;17473;52.286;20.930;2022-10-26T01:47:21;19.60;;;12.63;;
30723;SDS011;17473;52.286;20.930;2022-10-26T01:49:51;19.85;;;12.93;;
30723;SDS011;17473;52.286;20.930;2022-10-26T01:52:21;18.85;;;12.52;;
30723;SDS011;17473;52.286;20.930;2022-10-26T01:54:49;23.73;;;14.27;;
30723;SDS011;17473;52.286;20.930;2022-10-26T01:57:19;19.23;;;14.10;;
30723;SDS011;17473;52.286;20.930;2022-10-26T02:05:53;21.48;;;14.75;;
30723;SDS011;17473;52.286;20.930;2022-10-26T02:08:48;19.33;;;13.68;;
30723;SDS011;17473;52.286;20.930;2022-10-26T02:11:44;27.05;;;14.20;;
30723;SDS011;17473;52.286;20.930;2022-10-26T02:14:20;26.42;;;15.18;;
30723;SDS011;17473;52.286;20.930;2022-10-26T02:17:27;21.13;;;14.55;;
30723;SDS011;17473;52.286;20.930;2022-10-26T02:20:07;23.77;;;14.75;;
30723;SDS011;17473;52.286;20.930;2022-10-26T02:22:47;30.25;;;15.65;;
30723;SDS011;17473;52.286;20.930;2022-10-26T02:25:19;23.80;;;15.10;;
30723;SDS011;17473;52.286;20.930;2022-10-26T02:27:56;30.67;;;14.90;;
30723;SDS011;17473;52.286;20.930;2022-10-26T02:30:33;23.50;;;15.00;;
30723;SDS011;17473;52.286;20.930;2022-10-26T02:33:01;23.63;;;16.45;;
30723;SDS011;17473;52.286;20.930;2022-10-26T02:35:30;26.42;;;16.60;;
30723;SDS011;17473;52.286;20.930;2022-10-26T02:38:01;28.27;;;17.42;;
30723;SDS011;17473;52.286;20.930;2022-10-26T02:40:34;26.00;;;15.55;;
30723;SDS011;17473;52.286;20.930;2022-10-26T02:43:06;23.08;;;15.02;;
30723;SDS011;17473;52.286;20.930;2022-10-26T02:45:42;22.40;;;16.33;;
30723;SDS011;17473;52.286;20.930;2022-10-26T02:48:17;23.05;;;16.30;;
30723;SDS011;17473;52.286;20.930;2022-10-26T02:53:49;25.70;;;16.58;;
30723;SDS011;17473;52.286;20.930;2022-10-26T02:56:31;23.38;;;16.52;;
30723;SDS011;17473;52.286;20.930;2022-10-26T02:59:06;33.13;;;18.13;;
30723;SDS011;17473;52.286;20.930;2022-10-26T03:01:37;26.88;;;17.33;;
30723;SDS011;17473;52.286;20.930;2022-10-26T03:04:07;28.02;;;18.38;;
30723;SDS011;17473;52.286;20.930;2022-10-26T03:06:34;28.38;;;17.08;;
30723;SDS011;17473;52.286;20.930;2022-10-26T03:09:00;24.88;;;16.50;;
30723;SDS011;17473;52.286;20.930;2022-10-26T03:11:28;28.42;;;17.23;;
30723;SDS011;17473;52.286;20.930;2022-10-26T03:13:55;27.77;;;16.23;;
30723;SDS011;17473;52.286;20.930;2022-10-26T03:16:22;24.55;;;15.32;;
30723;SDS011;17473;52.286;20.930;2022-10-26T03:18:49;25.10;;;16.48;;
30723;SDS011;17473;52.286;20.930;2022-10-26T03:21:16;23.77;;;16.25;;
30723;SDS011;17473;52.286;20.930;2022-10-26T03:23:42;28.50;;;15.63;;
30723;SDS011;17473;52.286;20.930;2022-10-26T03:26:11;29.33;;;16.95;;
30723;SDS011;17473;52.286;20.930;2022-10-26T03:28:38;29.05;;;15.88;;
30723;SDS011;17473;52.286;20.930;2022-10-26T03:31:05;25.67;;;17.48;;
30723;SDS011;17473;52.286;20.930;2022-10-26T03:33:32;26.45;;;17.27;;
30723;SDS011;17473;52.286;20.930;2022-10-26T03:35:59;24.15;;;16.90;;
30723;SDS011;17473;52.286;20.930;2022-10-26T03:38:26;26.13;;;17.38;;
30723;SDS011;17473;52.286;20.930;2022-10-26T03:40:53;25.95;;;16.73;;
30723;SDS011;17473;52.286;20.930;2022-10-26T03:43:20;28.55;;;16.70;;
30723;SDS011;17473;52.286;20.930;2022-10-26T03:45:47;26.15;;;16.25;;
30723;SDS011;17473;52.286;20.930;2022-10-26T03:48:14;26.75;;;16.15;;
30723;SDS011;17473;52.286;20.930;2022-10-26T03:50:41;29.98;;;17.55;;
30723;SDS011;17473;52.286;20.930;2022-10-26T03:53:08;31.15;;;16.77;;
30723;SDS011;17473;52.286;20.930;2022-10-26T03:55:35;26.70;;;16.70;;
30723;SDS011;17473;52.286;20.930;2022-10-26T03:58:03;30.50;;;17.33;;
30723;SDS011;17473;52.286;20.930;2022-10-26T04:00:30;32.97;;;16.77;;
30723;SDS011;17473;52.286;20.930;2022-10-26T04:02:57;37.15;;;19.00;;
30723;SDS011;17473;52.286;20.930;2022-10-26T04:05:26;26.00;;;17.52;;
30723;SDS011;17473;52.286;20.930;2022-10-26T04:07:55;28.88;;;17.98;;
30723;SDS011;17473;52.286;20.930;2022-10-26T04:10:24;28.40;;;17.17;;
30723;SDS011;17473;52.286;20.930;2022-10-26T04:12:53;39.80;;;17.85;;
30723;SDS011;17473;52.286;20.930;2022-10-26T04:15:21;32.85;;;17.70;;
30723;SDS011;17473;52.286;20.930;2022-10-26T04:17:54;29.35;;;18.40;;
30723;SDS011;17473;52.286;20.930;2022-10-26T04:20:23;32.67;;;17.15;;
30723;SDS011;17473;52.286;20.930;2022-10-26T04:22:58;33.08;;;18.20;;
30723;SDS011;17473;52.286;20.930;2022-10-26T04:25:27;28.65;;;17.23;;
30723;SDS011;17473;52.286;20.930;2022-10-26T04:27:59;38.10;;;18.58;;
30723;SDS011;17473;52.286;20.930;2022-10-26T04:30:27;37.78;;;18.75;;
30723;SDS011;17473;52.286;20.930;2022-10-26T04:32:55;39.40;;;19.25;;
30723;SDS011;17473;52.286;20.930;2022-10-26T04:35:22;43.13;;;18.85;;
30723;SDS011;17473;52.286;20.930;2022-10-26T04:37:49;39.13;;;19.17;;
30723;SDS011;17473;52.286;20.930;2022-10-26T04:40:16;30.13;;;18.88;;
30723;SDS011;17473;52.286;20.930;2022-10-26T04:42:46;30.73;;;17.75;;
30723;SDS011;17473;52.286;20.930;2022-10-26T04:45:14;26.80;;;17.40;;
30723;SDS011;17473;52.286;20.930;2022-10-26T04:47:42;34.20;;;17.00;;
30723;SDS011;17473;52.286;20.930;2022-10-26T04:50:10;31.52;;;17.83;;
30723;SDS011;17473;52.286;20.930;2022-10-26T04:52:39;31.85;;;18.52;;
30723;SDS011;17473;52.286;20.930;2022-10-26T04:55:06;28.00;;;17.02;;
30723;SDS011;17473;52.286;20.930;2022-10-26T04:57:33;26.20;;;17.98;;
30723;SDS011;17473;52.286;20.930;2022-10-26T05:00:02;31.98;;;18.55;;
30723;SDS011;17473;52.286;20.930;2022-10-26T05:02:30;22.85;;;17.02;;
30723;SDS011;17473;52.286;20.930;2022-10-26T05:04:57;26.58;;;17.77;;
30723;SDS011;17473;52.286;20.930;2022-10-26T05:07:24;26.40;;;17.20;;
30723;SDS011;17473;52.286;20.930;2022-10-26T05:09:51;29.95;;;18.05;;
30723;SDS011;17473;52.286;20.930;2022-10-26T05:12:18;25.65;;;16.52;;
30723;SDS011;17473;52.286;20.930;2022-10-26T05:14:45;30.92;;;18.13;;
30723;SDS011;17473;52.286;20.930;2022-10-26T05:17:12;27.08;;;17.95;;
30723;SDS011;17473;52.286;20.930;2022-10-26T05:19:39;28.33;;;17.98;;
30723;SDS011;17473;52.286;20.930;2022-10-26T05:22:06;27.58;;;16.17;;
30723;SDS011;17473;52.286;20.930;2022-10-26T05:24:33;29.65;;;17.13;;
30723;SDS011;17473;52.286;20.930;2022-10-26T05:27:00;29.08;;;17.50;;
30723;SDS011;17473;52.286;20.930;2022-10-26T05:29:27;21.65;;;16.42;;
30723;SDS011;17473;52.286;20.930;2022-10-26T05:31:54;24.95;;;16.73;;
30723;SDS011;17473;52.286;20.930;2022-10-26T05:34:21;32.90;;;17.50;;
30723;SDS011;17473;52.286;20.930;2022-10-26T05:36:48;30.90;;;17.52;;
30723;SDS011;17473;52.286;20.930;2022-10-26T05:39:18;28.45;;;16.08;;
30723;SDS011;17473;52.286;20.930;2022-10-26T05:41:46;30.67;;;17.10;;
30723;SDS011;17473;52.286;20.930;2022-10-26T05:44:13;29.92;;;15.98;;
30723;SDS011;17473;52.286;20.930;2022-10-26T05:46:40;41.42;;;16.85;;
30723;SDS011;17473;52.286;20.930;2022-10-26T05:49:07;29.98;;;17.02;;
30723;SDS011;17473;52.286;20.930;2022-10-26T05:51:34;31.67;;;16.63;;
30723;SDS011;17473;52.286;20.930;2022-10-26T05:54:02;29.98;;;16.42;;
30723;SDS011;17473;52.286;20.930;2022-10-26T05:56:36;26.65;;;16.25;;
30723;SDS011;17473;52.286;20.930;2022-10-26T05:59:09;26.60;;;16.83;;
30723;SDS011;17473;52.286;20.930;2022-10-26T06:04:51;21.73;;;15.45;;
30723;SDS011;17473;52.286;20.930;2022-10-26T06:07:21;25.90;;;16.88;;
30723;SDS011;17473;52.286;20.930;2022-10-26T06:09:48;22.00;;;14.88;;
30723;SDS011;17473;52.286;20.930;2022-10-26T06:12:16;24.63;;;15.82;;
30723;SDS011;17473;52.286;20.930;2022-10-26T06:14:45;26.77;;;15.23;;
30723;SDS011;17473;52.286;20.930;2022-10-26T06:20:14;26.48;;;16.33;;
30723;SDS011;17473;52.286;20.930;2022-10-26T06:23:15;27.00;;;16.27;;
30723;SDS011;17473;52.286;20.930;2022-10-26T06:26:01;22.92;;;14.85;;
30723;SDS011;17473;52.286;20.930;2022-10-26T06:31:29;30.90;;;16.58;;
30723;SDS011;17473;52.286;20.930;2022-10-26T06:33:57;24.42;;;15.63;;
30723;SDS011;17473;52.286;20.930;2022-10-26T06:36:26;24.90;;;14.63;;
30723;SDS011;17473;52.286;20.930;2022-10-26T06:38:58;24.20;;;16.08;;
30723;SDS011;17473;52.286;20.930;2022-10-26T06:41:34;25.75;;;16.00;;
30723;SDS011;17473;52.286;20.930;2022-10-26T06:44:02;22.20;;;14.57;;
30723;SDS011;17473;52.286;20.930;2022-10-26T06:49:35;25.45;;;14.65;;
30723;SDS011;17473;52.286;20.930;2022-10-26T06:55:02;23.08;;;14.63;;
30723;SDS011;17473;52.286;20.930;2022-10-26T06:57:34;25.40;;;14.07;;
30723;SDS011;17473;52.286;20.930;2022-10-26T07:00:14;22.85;;;13.60;;
30723;SDS011;17473;52.286;20.930;2022-10-26T07:02:47;22.13;;;14.13;;
30723;SDS011;17473;52.286;20.930;2022-10-26T07:05:15;29.60;;;14.27;;
30723;SDS011;17473;52.286;20.930;2022-10-26T07:07:44;24.88;;;13.48;;
30723;SDS011;17473;52.286;20.930;2022-10-26T07:10:13;20.45;;;13.00;;
30723;SDS011;17473;52.286;20.930;2022-10-26T07:12:41;22.20;;;13.27;;
30723;SDS011;17473;52.286;20.930;2022-10-26T07:15:08;23.05;;;13.50;;
30723;SDS011;17473;52.286;20.930;2022-10-26T07:17:45;21.85;;;12.77;;
30723;SDS011;17473;52.286;20.930;2022-10-26T07:20:15;26.35;;;14.40;;
30723;SDS011;17473;52.286;20.930;2022-10-26T07:22:53;23.10;;;14.23;;
30723;SDS011;17473;52.286;20.930;2022-10-26T07:25:21;27.63;;;14.75;;
30723;SDS011;17473;52.286;20.930;2022-10-26T07:27:50;27.33;;;15.32;;
30723;SDS011;17473;52.286;20.930;2022-10-26T07:30:17;28.38;;;16.00;;
30723;SDS011;17473;52.286;20.930;2022-10-26T07:32:44;29.77;;;16.20;;
30723;SDS011;17473;52.286;20.930;2022-10-26T07:35:11;29.77;;;17.55;;
30723;SDS011;17473;52.286;20.930;2022-10-26T07:37:39;26.65;;;15.88;;
30723;SDS011;17473;52.286;20.930;2022-10-26T07:40:06;27.95;;;15.95;;
30723;SDS011;17473;52.286;20.930;2022-10-26T07:42:34;30.02;;;14.98;;
30723;SDS011;17473;52.286;20.930;2022-10-26T07:45:02;29.80;;;15.70;;
30723;SDS011;17473;52.286;20.930;2022-10-26T07:47:29;26.38;;;15.07;;
30723;SDS011;17473;52.286;20.930;2022-10-26T07:49:56;25.77;;;15.30;;
30723;SDS011;17473;52.286;20.930;2022-10-26T07:52:23;28.67;;;16.45;;
30723;SDS011;17473;52.286;20.930;2022-10-26T07:54:50;27.05;;;16.13;;
30723;SDS011;17473;52.286;20.930;2022-10-26T07:57:17;29.00;;;15.68;;
30723;SDS011;17473;52.286;20.930;2022-10-26T07:59:44;30.85;;;15.93;;
30723;SDS011;17473;52.286;20.930;2022-10-26T08:02:11;21.63;;;14.02;;
30723;SDS011;17473;52.286;20.930;2022-10-26T08:04:38;25.70;;;14.30;;
30723;SDS011;17473;52.286;20.930;2022-10-26T08:07:05;32.05;;;15.85;;
30723;SDS011;17473;52.286;20.930;2022-10-26T08:09:32;24.65;;;13.75;;
30723;SDS011;17473;52.286;20.930;2022-10-26T08:11:59;25.42;;;15.90;;
30723;SDS011;17473;52.286;20.930;2022-10-26T08:14:26;30.10;;;14.25;;
30723;SDS011;17473;52.286;20.930;2022-10-26T08:16:53;27.90;;;15.02;;
30723;SDS011;17473;52.286;20.930;2022-10-26T08:19:20;24.58;;;13.98;;
30723;SDS011;17473;52.286;20.930;2022-10-26T08:21:47;27.23;;;14.88;;
30723;SDS011;17473;52.286;20.930;2022-10-26T08:24:14;27.23;;;14.88;;
30723;SDS011;17473;52.286;20.930;2022-10-26T08:26:41;26.20;;;13.77;;
30723;SDS011;17473;52.286;20.930;2022-10-26T08:29:08;21.13;;;14.05;;
30723;SDS011;17473;52.286;20.930;2022-10-26T08:31:35;22.20;;;13.95;;
30723;SDS011;17473;52.286;20.930;2022-10-26T08:34:02;27.33;;;14.10;;
30723;SDS011;17473;52.286;20.930;2022-10-26T08:36:29;26.02;;;13.35;;
30723;SDS011;17473;52.286;20.930;2022-10-26T08:38:56;19.80;;;13.05;;
30723;SDS011;17473;52.286;20.930;2022-10-26T08:41:32;21.75;;;12.88;;
30723;SDS011;17473;52.286;20.930;2022-10-26T08:46:53;16.38;;;11.70;;
30723;SDS011;17473;52.286;20.930;2022-10-26T08:49:29;16.13;;;10.77;;
30723;SDS011;17473;52.286;20.930;2022-10-26T08:52:24;18.83;;;12.95;;
30723;SDS011;17473;52.286;20.930;2022-10-26T08:55:11;21.35;;;12.95;;
30723;SDS011;17473;52.286;20.930;2022-10-26T08:57:43;22.05;;;13.85;;
30723;SDS011;17473;52.286;20.930;2022-10-26T09:02:48;20.98;;;13.48;;
30723;SDS011;17473;52.286;20.930;2022-10-26T09:05:24;24.20;;;15.15;;
30723;SDS011;17473;52.286;20.930;2022-10-26T09:14:10;24.90;;;16.88;;
30723;SDS011;17473;52.286;20.930;2022-10-26T09:20:11;29.27;;;17.63;;
30723;SDS011;17473;52.286;20.930;2022-10-26T09:23:23;29.13;;;18.27;;
30723;SDS011;17473;52.286;20.930;2022-10-26T09:26:26;28.88;;;17.45;;
30723;SDS011;17473;52.286;20.930;2022-10-26T09:28:56;33.22;;;17.70;;
30723;SDS011;17473;52.286;20.930;2022-10-26T09:31:28;26.23;;;15.98;;
30723;SDS011;17473;52.286;20.930;2022-10-26T09:34:13;27.02;;;17.15;;
30723;SDS011;17473;52.286;20.930;2022-10-26T09:36:52;27.30;;;15.80;;
30723;SDS011;17473;52.286;20.930;2022-10-26T09:45:11;26.30;;;14.90;;
30723;SDS011;17473;52.286;20.930;2022-10-26T09:47:49;22.27;;;13.68;;
30723;SDS011;17473;52.286;20.930;2022-10-26T09:52:57;21.40;;;13.98;;
30723;SDS011;17473;52.286;20.930;2022-10-26T09:55:24;24.92;;;14.55;;
30723;SDS011;17473;52.286;20.930;2022-10-26T09:57:53;24.85;;;13.55;;
30723;SDS011;17473;52.286;20.930;2022-10-26T10:00:24;20.95;;;13.65;;
30723;SDS011;17473;52.286;20.930;2022-10-26T10:02:54;24.00;;;15.05;;
30723;SDS011;17473;52.286;20.930;2022-10-26T10:05:25;24.02;;;16.48;;
30723;SDS011;17473;52.286;20.930;2022-10-26T10:08:21;21.95;;;14.35;;
30723;SDS011;17473;52.286;20.930;2022-10-26T10:13:43;22.80;;;13.88;;
30723;SDS011;17473;52.286;20.930;2022-10-26T10:16:12;25.00;;;15.00;;
30723;SDS011;17473;52.286;20.930;2022-10-26T10:18:54;22.40;;;14.70;;
30723;SDS011;17473;52.286;20.930;2022-10-26T10:21:34;30.10;;;13.57;;
30723;SDS011;17473;52.286;20.930;2022-10-26T10:24:20;21.10;;;12.88;;
30723;SDS011;17473;52.286;20.930;2022-10-26T10:29:32;18.70;;;12.18;;
30723;SDS011;17473;52.286;20.930;2022-10-26T10:32:10;25.73;;;15.15;;
30723;SDS011;17473;52.286;20.930;2022-10-26T10:34:54;21.85;;;13.18;;
30723;SDS011;17473;52.286;20.930;2022-10-26T10:37:27;23.30;;;12.23;;
30723;SDS011;17473;52.286;20.930;2022-10-26T10:40:08;20.38;;;13.85;;
30723;SDS011;17473;52.286;20.930;2022-10-26T10:42:46;23.77;;;14.63;;
30723;SDS011;17473;52.286;20.930;2022-10-26T10:45:20;30.92;;;15.25;;
30723;SDS011;17473;52.286;20.930;2022-10-26T10:52:22;20.55;;;13.98;;
30723;SDS011;17473;52.286;20.930;2022-10-26T10:54:56;26.13;;;14.32;;
30723;SDS011;17473;52.286;20.930;2022-10-26T11:00:35;19.17;;;12.07;;
30723;SDS011;17473;52.286;20.930;2022-10-26T11:05:59;18.17;;;11.60;;
30723;SDS011;17473;52.286;20.930;2022-10-26T11:14:39;25.17;;;10.68;;
30723;SDS011;17473;52.286;20.930;2022-10-26T11:17:25;16.90;;;9.80;;
30723;SDS011;17473;52.286;20.930;2022-10-26T11:19:58;17.88;;;10.80;;
30723;SDS011;17473;52.286;20.930;2022-10-26T11:22:34;18.25;;;10.15;;
30723;SDS011;17473;52.286;20.930;2022-10-26T11:28:54;12.38;;;9.70;;
30723;SDS011;17473;52.286;20.930;2022-10-26T11:31:38;30.13;;;11.07;;
30723;SDS011;17473;52.286;20.930;2022-10-26T11:37:08;18.70;;;11.98;;
30723;SDS011;17473;52.286;20.930;2022-10-26T11:39:48;20.63;;;10.88;;
30723;SDS011;17473;52.286;20.930;2022-10-26T11:42:40;25.83;;;11.95;;
30723;SDS011;17473;52.286;20.930;2022-10-26T11:45:29;17.67;;;11.65;;
30723;SDS011;17473;52.286;20.930;2022-10-26T11:50:54;21.35;;;11.70;;
30723;SDS011;17473;52.286;20.930;2022-10-26T11:53:24;21.25;;;10.68;;
30723;SDS011;17473;52.286;20.930;2022-10-26T11:56:08;16.50;;;11.07;;
30723;SDS011;17473;52.286;20.930;2022-10-26T11:58:47;17.23;;;10.13;;
30723;SDS011;17473;52.286;20.930;2022-10-26T12:01:14;20.55;;;10.88;;
30723;SDS011;17473;52.286;20.930;2022-10-26T12:03:44;16.95;;;9.88;;
30723;SDS011;17473;52.286;20.930;2022-10-26T12:06:18;20.10;;;10.20;;
30723;SDS011;17473;52.286;20.930;2022-10-26T12:08:53;23.25;;;10.45;;
30723;SDS011;17473;52.286;20.930;2022-10-26T12:14:18;17.90;;;10.15;;
30723;SDS011;17473;52.286;20.930;2022-10-26T12:22:36;22.38;;;11.30;;
30723;SDS011;17473;52.286;20.930;2022-10-26T12:38:00;16.10;;;11.77;;
30723;SDS011;17473;52.286;20.930;2022-10-26T12:40:46;18.88;;;10.80;;
30723;SDS011;17473;52.286;20.930;2022-10-26T12:43:33;22.88;;;11.40;;
30723;SDS011;17473;52.286;20.930;2022-10-26T12:56:46;21.20;;;10.48;;
30723;SDS011;17473;52.286;20.930;2022-10-26T13:08:15;18.17;;;11.13;;
30723;SDS011;17473;52.286;20.930;2022-10-26T13:10:59;23.80;;;11.75;;
30723;SDS011;17473;52.286;20.930;2022-10-26T13:13:30;25.05;;;11.55;;
30723;SDS011;17473;52.286;20.930;2022-10-26T13:16:00;44.35;;;12.85;;
30723;SDS011;17473;52.286;20.930;2022-10-26T13:18:28;28.95;;;11.13;;
30723;SDS011;17473;52.286;20.930;2022-10-26T13:23:33;21.40;;;10.48;;
30723;SDS011;17473;52.286;20.930;2022-10-26T13:26:05;23.58;;;9.88;;
30723;SDS011;17473;52.286;20.930;2022-10-26T13:28:46;23.55;;;9.02;;
30723;SDS011;17473;52.286;20.930;2022-10-26T13:33:58;21.60;;;9.15;;
30723;SDS011;17473;52.286;20.930;2022-10-26T13:39:41;15.40;;;7.93;;
30723;SDS011;17473;52.286;20.930;2022-10-26T13:42:12;14.55;;;8.20;;
30723;SDS011;17473;52.286;20.930;2022-10-26T13:47:35;12.02;;;8.18;;
30723;SDS011;17473;52.286;20.930;2022-10-26T13:50:24;15.55;;;8.68;;
30723;SDS011;17473;52.286;20.930;2022-10-26T13:53:16;15.50;;;8.32;;
30723;SDS011;17473;52.286;20.930;2022-10-26T13:56:00;21.55;;;8.68;;
30723;SDS011;17473;52.286;20.930;2022-10-26T13:58:54;15.32;;;8.35;;
30723;SDS011;17473;52.286;20.930;2022-10-26T14:01:29;15.18;;;8.10;;
30723;SDS011;17473;52.286;20.930;2022-10-26T14:03:57;17.13;;;8.07;;
30723;SDS011;17473;52.286;20.930;2022-10-26T14:09:05;12.20;;;8.88;;
30723;SDS011;17473;52.286;20.930;2022-10-26T14:11:50;22.65;;;8.75;;
30723;SDS011;17473;52.286;20.930;2022-10-26T14:14:23;17.55;;;9.48;;
30723;SDS011;17473;52.286;20.930;2022-10-26T14:16:57;11.95;;;8.40;;
30723;SDS011;17473;52.286;20.930;2022-10-26T14:19:35;15.27;;;8.38;;
30723;SDS011;17473;52.286;20.930;2022-10-26T14:22:05;15.68;;;8.45;;
30723;SDS011;17473;52.286;20.930;2022-10-26T14:24:34;17.33;;;7.95;;
30723;SDS011;17473;52.286;20.930;2022-10-26T14:27:16;17.52;;;8.10;;
30723;SDS011;17473;52.286;20.930;2022-10-26T14:29:44;17.25;;;7.90;;
30723;SDS011;17473;52.286;20.930;2022-10-26T14:32:31;17.23;;;8.55;;
30723;SDS011;17473;52.286;20.930;2022-10-26T14:34:59;14.93;;;8.27;;
30723;SDS011;17473;52.286;20.930;2022-10-26T14:40:26;14.52;;;8.50;;
30723;SDS011;17473;52.286;20.930;2022-10-26T14:42:59;17.40;;;8.70;;
30723;SDS011;17473;52.286;20.930;2022-10-26T14:45:34;15.35;;;8.75;;
30723;SDS011;17473;52.286;20.930;2022-10-26T14:50:59;19.67;;;8.88;;
30723;SDS011;17473;52.286;20.930;2022-10-26T14:53:47;16.83;;;9.00;;
30723;SDS011;17473;52.286;20.930;2022-10-26T14:56:21;18.13;;;8.93;;
30723;SDS011;17473;52.286;20.930;2022-10-26T14:59:11;13.02;;;8.82;;
30723;SDS011;17473;52.286;20.930;2022-10-26T15:05:00;21.10;;;9.18;;
30723;SDS011;17473;52.286;20.930;2022-10-26T15:07:51;21.02;;;9.73;;
30723;SDS011;17473;52.286;20.930;2022-10-26T15:13:38;17.63;;;9.00;;
30723;SDS011;17473;52.286;20.930;2022-10-26T15:18:55;14.18;;;9.10;;
30723;SDS011;17473;52.286;20.930;2022-10-26T15:26:51;15.40;;;9.73;;
30723;SDS011;17473;52.286;20.930;2022-10-26T15:29:35;13.07;;;10.02;;
30723;SDS011;17473;52.286;20.930;2022-10-26T15:32:24;16.85;;;10.23;;
30723;SDS011;17473;52.286;20.930;2022-10-26T15:37:40;17.95;;;9.48;;
30723;SDS011;17473;52.286;20.930;2022-10-26T15:40:08;19.08;;;9.38;;
30723;SDS011;17473;52.286;20.930;2022-10-26T15:42:36;24.00;;;9.70;;
30723;SDS011;17473;52.286;20.930;2022-10-26T15:47:45;16.42;;;9.60;;
30723;SDS011;17473;52.286;20.930;2022-10-26T15:50:13;14.18;;;8.90;;
30723;SDS011;17473;52.286;20.930;2022-10-26T15:52:43;19.55;;;9.63;;
30723;SDS011;17473;52.286;20.930;2022-10-26T15:55:14;17.10;;;9.30;;
30723;SDS011;17473;52.286;20.930;2022-10-26T15:57:42;17.98;;;10.40;;
30723;SDS011;17473;52.286;20.930;2022-10-26T16:00:13;17.92;;;10.50;;
30723;SDS011;17473;52.286;20.930;2022-10-26T16:02:43;18.02;;;10.40;;
30723;SDS011;17473;52.286;20.930;2022-10-26T16:05:12;22.25;;;9.93;;
30723;SDS011;17473;52.286;20.930;2022-10-26T16:07:41;19.00;;;10.48;;
30723;SDS011;17473;52.286;20.930;2022-10-26T16:10:12;16.95;;;9.60;;
30723;SDS011;17473;52.286;20.930;2022-10-26T16:12:43;18.05;;;11.07;;
30723;SDS011;17473;52.286;20.930;2022-10-26T16:15:15;24.15;;;11.70;;
30723;SDS011;17473;52.286;20.930;2022-10-26T16:17:45;15.98;;;10.50;;
30723;SDS011;17473;52.286;20.930;2022-10-26T16:20:16;22.30;;;11.10;;
30723;SDS011;17473;52.286;20.930;2022-10-26T16:22:48;22.23;;;10.68;;
30723;SDS011;17473;52.286;20.930;2022-10-26T16:25:20;20.70;;;11.43;;
30723;SDS011;17473;52.286;20.930;2022-10-26T16:27:51;21.20;;;10.68;;
30723;SDS011;17473;52.286;20.930;2022-10-26T16:30:20;23.48;;;12.82;;
30723;SDS011;17473;52.286;20.930;2022-10-26T16:32:53;20.60;;;10.93;;
30723;SDS011;17473;52.286;20.930;2022-10-26T16:35:20;19.70;;;10.25;;
30723;SDS011;17473;52.286;20.930;2022-10-26T16:37:47;14.25;;;10.90;;
30723;SDS011;17473;52.286;20.930;2022-10-26T16:40:14;22.98;;;11.65;;
30723;SDS011;17473;52.286;20.930;2022-10-26T16:42:41;19.60;;;11.57;;
30723;SDS011;17473;52.286;20.930;2022-10-26T16:45:10;20.08;;;10.93;;
30723;SDS011;17473;52.286;20.930;2022-10-26T16:47:38;16.95;;;10.32;;
30723;SDS011;17473;52.286;20.930;2022-10-26T16:50:06;22.05;;;10.20;;
30723;SDS011;17473;52.286;20.930;2022-10-26T16:52:34;22.00;;;10.15;;
30723;SDS011;17473;52.286;20.930;2022-10-26T16:55:03;17.40;;;10.32;;
30723;SDS011;17473;52.286;20.930;2022-10-26T16:57:32;19.30;;;10.70;;
30723;SDS011;17473;52.286;20.930;2022-10-26T17:00:00;19.15;;;10.68;;
30723;SDS011;17473;52.286;20.930;2022-10-26T17:02:29;18.65;;;10.70;;
30723;SDS011;17473;52.286;20.930;2022-10-26T17:04:56;22.23;;;11.30;;
30723;SDS011;17473;52.286;20.930;2022-10-26T17:07:29;24.90;;;11.60;;
30723;SDS011;17473;52.286;20.930;2022-10-26T17:09:56;18.38;;;10.50;;
30723;SDS011;17473;52.286;20.930;2022-10-26T17:12:23;19.50;;;11.80;;
30723;SDS011;17473;52.286;20.930;2022-10-26T17:14:55;21.13;;;11.98;;
30723;SDS011;17473;52.286;20.930;2022-10-26T17:17:24;23.42;;;11.30;;
30723;SDS011;17473;52.286;20.930;2022-10-26T17:19:51;22.45;;;11.65;;
30723;SDS011;17473;52.286;20.930;2022-10-26T17:22:18;16.92;;;11.75;;
30723;SDS011;17473;52.286;20.930;2022-10-26T17:24:45;19.98;;;12.18;;
30723;SDS011;17473;52.286;20.930;2022-10-26T17:27:12;24.52;;;13.60;;
30723;SDS011;17473;52.286;20.930;2022-10-26T17:29:39;23.15;;;13.15;;
30723;SDS011;17473;52.286;20.930;2022-10-26T17:32:06;28.10;;;14.35;;
30723;SDS011;17473;52.286;20.930;2022-10-26T17:34:33;24.50;;;14.18;;
30723;SDS011;17473;52.286;20.930;2022-10-26T17:37:00;21.02;;;13.70;;